Time;durP1;ratioP1;P1;durP2;ratioP2;P2;SDS_P1;SDS_P2;PMS_P1;PMS_P2;Temp;Humidity;BMP_temperature;BMP_pressure;BME280_temperature;BME280_humidity;BME280_pressure;Samples;Min_cycle;Max_cycle;Signal;HPM_P1;HPM_P2
2020/12/31 00:01:40;;;;;;;;;;;19.50;28.70;;;;;;491588;240;954;-71
2020/12/31 00:03:42;;;;;;;;;;;19.50;28.80;;;;;;491654;240;1038;-71
2020/12/31 00:05:43;;;;;;;;;;;19.60;28.80;;;;;;491699;240;1023;-71
2020/12/31 00:07:44;;;;;;;;;;;19.50;28.70;;;;;;491643;240;1255;-71
2020/12/31 00:09:45;;;;;;;;;;;19.50;28.80;;;;;;491675;240;2179;-71
2020/12/31 00:11:47;;;;;;;;;;;19.50;28.70;;;;;;491669;240;950;-71
2020/12/31 00:13:48;;;;;;;;;;;19.50;28.80;;;;;;491724;240;1124;-71
2020/12/31 00:15:49;;;;;;;;;;;19.50;28.80;;;;;;491686;240;955;-71
2020/12/31 00:17:51;;;;;;;;;;;19.50;28.80;;;;;;491707;240;937;-71
2020/12/31 00:19:52;;;;;;;;;;;19.50;28.80;;;;;;491670;240;971;-71
2020/12/31 00:21:53;;;;;;;;;;;19.50;28.70;;;;;;491638;240;1018;-71
2020/12/31 00:23:54;;;;;;;;;;;19.50;28.80;;;;;;491751;240;1147;-71
2020/12/31 00:25:56;;;;;;;;;;;19.50;28.80;;;;;;491639;240;960;-72
2020/12/31 00:27:57;;;;;;;;;;;19.50;28.80;;;;;;491686;240;998;-72
2020/12/31 00:29:58;;;;;;;;;;;19.50;28.80;;;;;;491685;240;2228;-71
2020/12/31 00:31:59;;;;;;;;;;;19.40;28.80;;;;;;491665;240;960;-71
2020/12/31 00:34:01;;;;;;;;;;;19.50;28.80;;;;;;491735;240;970;-71
2020/12/31 00:36:02;;;;;;;;;;;19.40;28.70;;;;;;491667;240;936;-71
2020/12/31 00:38:03;;;;;;;;;;;19.40;28.70;;;;;;491661;240;1140;-71
2020/12/31 00:40:05;;;;;;;;;;;19.50;28.70;;;;;;491774;240;971;-71
2020/12/31 00:42:06;;;;;;;;;;;19.50;28.70;;;;;;491677;240;973;-71
2020/12/31 00:44:07;;;;;;;;;;;19.40;28.70;;;;;;491626;240;1282;-71
2020/12/31 00:46:08;;;;;;;;;;;19.50;28.70;;;;;;491666;240;952;-71
2020/12/31 00:48:10;;;;;;;;;;;19.50;28.70;;;;;;491641;240;1241;-71
2020/12/31 00:50:11;;;;;;;;;;;19.50;28.70;;;;;;491812;240;2140;-71
2020/12/31 00:52:12;;;;;;;;;;;19.50;28.70;;;;;;491750;240;970;-71
2020/12/31 00:54:13;;;;;;;;;;;19.50;28.70;;;;;;491654;240;1185;-72
2020/12/31 00:56:15;;;;;;;;;;;19.50;28.70;;;;;;491612;240;950;-71
2020/12/31 00:58:16;;;;;;;;;;;19.40;28.70;;;;;;491662;240;1029;-71
2020/12/31 01:00:17;;;;;;;;;;;19.40;28.70;;;;;;491642;240;1154;-71
2020/12/31 01:02:19;;;;;;;;;;;19.50;28.70;;;;;;491591;240;981;-71
2020/12/31 01:04:20;;;;;;;;;;;19.50;28.70;;;;;;491684;240;928;-71
2020/12/31 01:06:21;;;;;;;;;;;19.50;28.70;;;;;;491721;240;1032;-71
2020/12/31 01:08:23;;;;;;;;;;;19.40;28.60;;;;;;491670;240;1141;-71
2020/12/31 01:10:24;;;;;;;;;;;19.40;28.70;;;;;;491672;240;2176;-72
2020/12/31 01:12:25;;;;;;;;;;;19.40;28.70;;;;;;491599;240;962;-71
2020/12/31 01:14:27;;;;;;;;;;;19.40;28.70;;;;;;491801;240;1098;-71
2020/12/31 01:16:28;;;;;;;;;;;19.40;28.60;;;;;;491661;240;1386;-71
2020/12/31 01:18:29;;;;;;;;;;;19.40;28.70;;;;;;491670;240;1074;-72
2020/12/31 01:20:30;;;;;;;;;;;19.40;28.70;;;;;;491647;240;1178;-71
2020/12/31 01:22:32;;;;;;;;;;;19.40;28.70;;;;;;491618;240;1219;-71
2020/12/31 01:24:33;;;;;;;;;;;19.40;28.60;;;;;;491720;240;1159;-71
2020/12/31 01:26:35;;;;;;;;;;;19.40;28.60;;;;;;491635;240;1142;-72
2020/12/31 01:28:35;;;;;;;;;;;19.40;28.60;;;;;;491638;240;1469;-72
2020/12/31 01:30:37;;;;;;;;;;;19.40;28.60;;;;;;491636;240;2187;-71
2020/12/31 01:32:38;;;;;;;;;;;19.40;28.70;;;;;;491692;240;1209;-71
2020/12/31 01:34:39;;;;;;;;;;;19.40;28.60;;;;;;491720;240;955;-71
2020/12/31 01:36:40;;;;;;;;;;;19.40;28.60;;;;;;491657;240;987;-71
2020/12/31 01:38:42;;;;;;;;;;;19.40;28.60;;;;;;491713;240;1155;-72
2020/12/31 01:40:43;;;;;;;;;;;19.40;28.60;;;;;;491646;240;1126;-71
2020/12/31 01:42:44;;;;;;;;;;;19.50;28.60;;;;;;491595;240;1017;-71
2020/12/31 01:44:46;;;;;;;;;;;19.50;28.60;;;;;;491669;240;990;-71
2020/12/31 01:46:47;;;;;;;;;;;19.40;28.60;;;;;;491656;240;1023;-71
2020/12/31 01:48:48;;;;;;;;;;;19.40;28.60;;;;;;491648;240;946;-71
2020/12/31 01:50:49;;;;;;;;;;;19.40;28.60;;;;;;491663;240;2180;-71
2020/12/31 01:52:51;;;;;;;;;;;19.40;28.60;;;;;;491671;240;1007;-71
2020/12/31 01:54:52;;;;;;;;;;;19.40;28.60;;;;;;491686;240;1243;-71
2020/12/31 01:56:53;;;;;;;;;;;19.40;28.60;;;;;;491633;240;1042;-71
2020/12/31 01:58:54;;;;;;;;;;;19.40;28.60;;;;;;491651;240;978;-71
2020/12/31 02:00:56;;;;;;;;;;;19.40;28.60;;;;;;491667;240;968;-71
2020/12/31 02:02:57;;;;;;;;;;;19.40;28.60;;;;;;491597;240;967;-71
2020/12/31 02:04:58;;;;;;;;;;;19.40;28.60;;;;;;491650;240;1075;-71
2020/12/31 02:07:00;;;;;;;;;;;19.40;28.60;;;;;;491602;240;970;-71
2020/12/31 02:09:01;;;;;;;;;;;19.40;28.60;;;;;;491681;240;1155;-71
2020/12/31 02:11:02;;;;;;;;;;;19.40;28.60;;;;;;491616;240;2187;-71
2020/12/31 02:13:03;;;;;;;;;;;19.40;28.60;;;;;;491635;240;1059;-71
2020/12/31 02:15:05;;;;;;;;;;;19.40;28.60;;;;;;491760;240;1137;-71
2020/12/31 02:17:06;;;;;;;;;;;19.40;28.60;;;;;;491654;240;984;-71
2020/12/31 02:19:07;;;;;;;;;;;19.40;28.60;;;;;;491649;240;959;-71
2020/12/31 02:21:09;;;;;;;;;;;19.40;28.60;;;;;;491631;240;940;-71
2020/12/31 02:23:10;;;;;;;;;;;19.40;28.60;;;;;;491634;240;963;-71
2020/12/31 02:25:11;;;;;;;;;;;19.40;28.60;;;;;;491630;240;1163;-71
2020/12/31 02:27:12;;;;;;;;;;;19.40;28.60;;;;;;491645;240;928;-71
2020/12/31 02:29:14;;;;;;;;;;;19.40;28.50;;;;;;491678;240;1050;-71
2020/12/31 02:31:15;;;;;;;;;;;19.40;28.50;;;;;;491637;240;2133;-72
2020/12/31 02:33:16;;;;;;;;;;;19.40;28.60;;;;;;491677;240;1054;-72
2020/12/31 02:35:17;;;;;;;;;;;19.40;28.50;;;;;;491625;240;1069;-72
2020/12/31 02:37:19;;;;;;;;;;;19.40;28.50;;;;;;491566;240;967;-72
2020/12/31 02:39:20;;;;;;;;;;;19.50;28.50;;;;;;491616;240;1176;-72
2020/12/31 02:41:21;;;;;;;;;;;19.40;28.50;;;;;;491627;240;939;-71
2020/12/31 02:43:23;;;;;;;;;;;19.40;28.50;;;;;;491662;240;989;-71
2020/12/31 02:45:24;;;;;;;;;;;19.40;28.50;;;;;;491625;240;961;-71
2020/12/31 02:47:25;;;;;;;;;;;19.40;28.50;;;;;;491616;240;959;-71
2020/12/31 02:49:26;;;;;;;;;;;19.40;28.50;;;;;;491717;240;978;-71
2020/12/31 02:51:28;;;;;;;;;;;19.40;28.50;;;;;;491641;240;2184;-71
2020/12/31 02:53:29;;;;;;;;;;;19.40;28.50;;;;;;491741;240;957;-71
2020/12/31 02:55:30;;;;;;;;;;;19.40;28.50;;;;;;491672;240;1163;-71
2020/12/31 02:57:32;;;;;;;;;;;19.40;28.50;;;;;;491617;240;1017;-72
2020/12/31 02:59:33;;;;;;;;;;;19.40;28.50;;;;;;491661;240;939;-72
2020/12/31 03:01:34;;;;;;;;;;;19.40;28.40;;;;;;491603;240;951;-71
2020/12/31 03:03:35;;;;;;;;;;;19.40;28.40;;;;;;491638;240;942;-71
2020/12/31 03:05:37;;;;;;;;;;;19.40;28.40;;;;;;491605;240;1054;-71
2020/12/31 03:07:38;;;;;;;;;;;19.40;28.40;;;;;;491633;240;961;-72
2020/12/31 03:09:39;;;;;;;;;;;19.40;28.40;;;;;;491645;240;1130;-71
2020/12/31 03:11:41;;;;;;;;;;;19.40;28.40;;;;;;491639;240;2160;-72
2020/12/31 03:13:42;;;;;;;;;;;19.40;28.40;;;;;;491624;240;977;-72
2020/12/31 03:15:43;;;;;;;;;;;19.40;28.40;;;;;;491672;240;951;-72
2020/12/31 03:17:44;;;;;;;;;;;19.40;28.40;;;;;;491635;240;1070;-71
2020/12/31 03:19:55;;;;;;;;;;;19.30;28.40;;;;;;491641;240;943;-72
2020/12/31 03:21:56;;;;;;;;;;;19.30;28.40;;;;;;491666;240;1075;-72
2020/12/31 03:23:58;;;;;;;;;;;19.40;28.40;;;;;;491657;240;1044;-72
2020/12/31 03:25:59;;;;;;;;;;;19.30;28.40;;;;;;491697;240;1151;-71
2020/12/31 03:28:00;;;;;;;;;;;19.30;28.40;;;;;;491635;240;1038;-72
2020/12/31 03:30:01;;;;;;;;;;;19.30;28.40;;;;;;491616;240;2183;-72
2020/12/31 03:32:03;;;;;;;;;;;19.30;28.30;;;;;;491691;240;1084;-71
2020/12/31 03:34:04;;;;;;;;;;;19.30;28.40;;;;;;491626;240;1081;-72
2020/12/31 03:36:05;;;;;;;;;;;19.30;28.40;;;;;;491653;240;1075;-71
2020/12/31 03:38:07;;;;;;;;;;;19.30;28.40;;;;;;491658;240;1040;-71
2020/12/31 03:40:08;;;;;;;;;;;19.30;28.40;;;;;;491607;240;1088;-71
2020/12/31 03:42:09;;;;;;;;;;;19.20;28.40;;;;;;491638;240;930;-71
2020/12/31 03:44:10;;;;;;;;;;;19.30;28.50;;;;;;491644;240;982;-72
2020/12/31 03:46:12;;;;;;;;;;;19.20;28.40;;;;;;491645;240;973;-72
2020/12/31 03:48:13;;;;;;;;;;;19.20;28.40;;;;;;491682;240;957;-72
2020/12/31 03:50:14;;;;;;;;;;;19.30;28.40;;;;;;491644;240;2124;-71
2020/12/31 03:52:15;;;;;;;;;;;19.20;28.40;;;;;;491689;240;1053;-71
2020/12/31 03:54:17;;;;;;;;;;;19.20;28.40;;;;;;491646;240;978;-71
2020/12/31 03:56:19;;;;;;;;;;;19.20;28.40;;;;;;491657;240;1175;-71
2020/12/31 03:58:20;;;;;;;;;;;19.20;28.30;;;;;;491632;240;960;-71
2020/12/31 04:00:22;;;;;;;;;;;19.20;28.40;;;;;;491658;240;960;-71
2020/12/31 04:02:23;;;;;;;;;;;19.20;28.40;;;;;;491679;240;960;-71
2020/12/31 04:04:24;;;;;;;;;;;19.20;28.40;;;;;;491627;240;977;-71
2020/12/31 04:06:25;;;;;;;;;;;19.20;28.30;;;;;;491608;240;955;-71
2020/12/31 04:08:27;;;;;;;;;;;19.20;28.30;;;;;;491717;240;933;-71
2020/12/31 04:10:28;;;;;;;;;;;19.20;28.30;;;;;;491645;240;2180;-71
2020/12/31 04:12:29;;;;;;;;;;;19.30;28.30;;;;;;491661;240;966;-71
2020/12/31 04:14:30;;;;;;;;;;;19.30;28.20;;;;;;491591;240;936;-71
2020/12/31 04:16:32;;;;;;;;;;;19.30;28.20;;;;;;491611;240;948;-71
2020/12/31 04:18:33;;;;;;;;;;;19.30;28.20;;;;;;491664;240;988;-71
2020/12/31 04:20:35;;;;;;;;;;;19.20;28.20;;;;;;491637;240;928;-72
2020/12/31 04:22:36;;;;;;;;;;;19.20;28.20;;;;;;491676;240;1042;-72
2020/12/31 04:24:37;;;;;;;;;;;19.20;28.20;;;;;;491656;240;981;-71
2020/12/31 04:26:38;;;;;;;;;;;19.20;28.20;;;;;;491756;240;1153;-71
2020/12/31 04:28:40;;;;;;;;;;;19.20;28.20;;;;;;491665;240;1077;-71
2020/12/31 04:30:41;;;;;;;;;;;19.20;28.20;;;;;;491611;240;2175;-71
2020/12/31 04:32:42;;;;;;;;;;;19.20;28.20;;;;;;491655;240;1002;-72
2020/12/31 04:34:44;;;;;;;;;;;19.20;28.20;;;;;;491640;240;1057;-71
2020/12/31 04:36:45;;;;;;;;;;;19.20;28.20;;;;;;491651;240;963;-71
2020/12/31 04:38:46;;;;;;;;;;;19.10;28.20;;;;;;491703;240;1085;-71
2020/12/31 04:40:48;;;;;;;;;;;19.10;28.20;;;;;;491619;240;1124;-71
2020/12/31 04:42:49;;;;;;;;;;;19.20;28.20;;;;;;491596;240;1258;-71
2020/12/31 04:44:50;;;;;;;;;;;19.20;28.10;;;;;;491684;240;1017;-71
2020/12/31 04:46:51;;;;;;;;;;;19.20;28.20;;;;;;491648;240;957;-72
2020/12/31 04:48:53;;;;;;;;;;;19.20;28.10;;;;;;491665;240;1282;-72
2020/12/31 04:50:54;;;;;;;;;;;19.10;28.10;;;;;;491634;240;2140;-72
2020/12/31 04:52:55;;;;;;;;;;;19.10;28.10;;;;;;491629;240;1183;-71
2020/12/31 04:54:57;;;;;;;;;;;19.20;28.10;;;;;;491651;240;1122;-72
2020/12/31 04:56:58;;;;;;;;;;;19.20;28.10;;;;;;491589;240;1171;-71
2020/12/31 04:58:59;;;;;;;;;;;19.20;28.10;;;;;;491646;240;951;-72
2020/12/31 05:01:00;;;;;;;;;;;19.20;28.10;;;;;;491617;240;967;-71
2020/12/31 05:03:02;;;;;;;;;;;19.20;28.00;;;;;;491661;240;1044;-71
2020/12/31 05:05:03;;;;;;;;;;;19.20;28.00;;;;;;491637;240;987;-71
2020/12/31 05:07:04;;;;;;;;;;;19.20;28.00;;;;;;491626;240;951;-71
2020/12/31 05:09:05;;;;;;;;;;;19.10;28.00;;;;;;491668;240;1038;-71
2020/12/31 05:11:07;;;;;;;;;;;19.10;28.00;;;;;;491618;238;2196;-72
2020/12/31 05:13:08;;;;;;;;;;;19.10;28.00;;;;;;491662;240;1126;-71
2020/12/31 05:15:09;;;;;;;;;;;19.10;28.00;;;;;;491655;240;1044;-71
2020/12/31 05:17:11;;;;;;;;;;;19.10;28.00;;;;;;491721;240;1072;-71
2020/12/31 05:19:12;;;;;;;;;;;19.20;28.00;;;;;;491665;240;948;-71
2020/12/31 05:21:13;;;;;;;;;;;19.20;28.00;;;;;;491646;240;1151;-71
2020/12/31 05:23:15;;;;;;;;;;;19.20;28.00;;;;;;491666;240;1038;-71
2020/12/31 05:25:16;;;;;;;;;;;19.10;28.00;;;;;;491696;240;954;-71
2020/12/31 05:27:17;;;;;;;;;;;19.20;28.00;;;;;;491735;240;1155;-71
2020/12/31 05:29:19;;;;;;;;;;;19.10;28.00;;;;;;491684;240;1013;-71
2020/12/31 05:31:21;;;;;;;;;;;19.20;28.10;;;;;;491690;240;2132;-71
2020/12/31 05:33:21;;;;;;;;;;;19.20;28.00;;;;;;491650;241;1450;-71
2020/12/31 05:35:23;;;;;;;;;;;19.20;28.00;;;;;;491573;240;1070;-71
2020/12/31 05:37:24;;;;;;;;;;;19.20;28.00;;;;;;491616;240;933;-71
2020/12/31 05:39:25;;;;;;;;;;;19.20;28.00;;;;;;491574;240;1102;-71
2020/12/31 05:41:27;;;;;;;;;;;19.10;28.00;;;;;;491552;239;1275;-71
2020/12/31 05:43:28;;;;;;;;;;;19.10;28.00;;;;;;491659;240;1020;-71
2020/12/31 05:45:29;;;;;;;;;;;19.10;28.00;;;;;;491600;240;944;-71
2020/12/31 05:47:30;;;;;;;;;;;19.10;28.00;;;;;;491614;240;1154;-72
2020/12/31 05:49:32;;;;;;;;;;;19.10;28.00;;;;;;491663;240;949;-71
2020/12/31 05:51:33;;;;;;;;;;;19.20;28.00;;;;;;491646;240;2211;-71
2020/12/31 05:53:34;;;;;;;;;;;19.10;28.00;;;;;;491658;240;1185;-71
2020/12/31 05:55:35;;;;;;;;;;;19.20;28.00;;;;;;491666;240;960;-71
2020/12/31 05:57:37;;;;;;;;;;;19.20;28.00;;;;;;491626;240;1181;-71
2020/12/31 05:59:38;;;;;;;;;;;19.10;28.00;;;;;;491620;240;1029;-71
2020/12/31 06:01:39;;;;;;;;;;;19.10;28.00;;;;;;491597;240;1041;-71
2020/12/31 06:03:41;;;;;;;;;;;19.10;28.00;;;;;;491673;240;1168;-71
2020/12/31 06:05:42;;;;;;;;;;;19.10;28.00;;;;;;491785;240;936;-71
2020/12/31 06:07:43;;;;;;;;;;;19.10;28.00;;;;;;491645;240;1206;-71
2020/12/31 06:09:44;;;;;;;;;;;19.20;28.00;;;;;;491734;240;1044;-71
2020/12/31 06:11:46;;;;;;;;;;;19.20;28.00;;;;;;491633;240;2148;-71
2020/12/31 06:13:47;;;;;;;;;;;19.10;28.00;;;;;;491651;240;1085;-71
2020/12/31 06:15:48;;;;;;;;;;;19.10;28.00;;;;;;491561;240;965;-71
2020/12/31 06:17:49;;;;;;;;;;;19.10;28.00;;;;;;491603;240;1649;-71
2020/12/31 06:19:51;;;;;;;;;;;19.10;28.00;;;;;;491643;240;982;-71
2020/12/31 06:21:52;;;;;;;;;;;19.10;27.90;;;;;;491613;240;1060;-71
2020/12/31 06:23:53;;;;;;;;;;;19.10;27.90;;;;;;491645;240;1047;-71
2020/12/31 06:25:54;;;;;;;;;;;19.10;27.90;;;;;;491703;240;954;-71
2020/12/31 06:27:56;;;;;;;;;;;19.10;27.90;;;;;;491684;240;1251;-71
2020/12/31 06:29:57;;;;;;;;;;;19.00;27.90;;;;;;491671;240;933;-71
2020/12/31 06:31:58;;;;;;;;;;;19.00;27.90;;;;;;491729;240;2137;-71
2020/12/31 06:34:00;;;;;;;;;;;19.10;27.90;;;;;;491633;240;946;-71
2020/12/31 06:36:01;;;;;;;;;;;19.10;27.90;;;;;;491590;240;1130;-71
2020/12/31 06:38:03;;;;;;;;;;;19.10;27.80;;;;;;491624;240;1082;-71
2020/12/31 06:40:04;;;;;;;;;;;19.10;27.80;;;;;;491642;240;1069;-71
2020/12/31 06:42:05;;;;;;;;;;;19.20;27.80;;;;;;491616;240;1086;-71
2020/12/31 06:44:07;;;;;;;;;;;19.10;27.80;;;;;;491615;240;1187;-71
2020/12/31 06:46:08;;;;;;;;;;;19.10;27.80;;;;;;491615;240;955;-71
2020/12/31 06:48:09;;;;;;;;;;;19.10;27.80;;;;;;491637;240;1088;-71
2020/12/31 06:50:10;;;;;;;;;;;19.10;27.80;;;;;;491652;240;1068;-71
2020/12/31 06:52:12;;;;;;;;;;;19.00;27.80;;;;;;491617;240;2203;-71
2020/12/31 06:54:13;;;;;;;;;;;19.10;27.80;;;;;;491671;240;938;-71
2020/12/31 06:56:14;;;;;;;;;;;19.00;27.80;;;;;;491640;240;1051;-71
2020/12/31 06:58:16;;;;;;;;;;;19.00;27.80;;;;;;491679;240;1173;-71
2020/12/31 07:00:17;;;;;;;;;;;19.00;27.80;;;;;;491585;240;987;-71
2020/12/31 07:02:18;;;;;;;;;;;19.10;27.80;;;;;;491548;240;942;-71
2020/12/31 07:04:19;;;;;;;;;;;19.00;27.80;;;;;;491672;240;954;-71
2020/12/31 07:06:21;;;;;;;;;;;19.00;27.80;;;;;;491654;240;1218;-71
2020/12/31 07:08:22;;;;;;;;;;;19.00;27.80;;;;;;491690;240;1239;-71
2020/12/31 07:10:23;;;;;;;;;;;19.00;27.80;;;;;;491664;240;972;-71
2020/12/31 07:12:24;;;;;;;;;;;19.00;27.70;;;;;;491661;239;2183;-71
2020/12/31 07:14:26;;;;;;;;;;;19.00;27.70;;;;;;491607;240;1053;-71
2020/12/31 07:16:27;;;;;;;;;;;19.10;27.80;;;;;;491653;240;1062;-71
2020/12/31 07:18:28;;;;;;;;;;;19.10;27.80;;;;;;491718;240;1040;-71
2020/12/31 07:20:30;;;;;;;;;;;19.10;27.70;;;;;;491713;240;1024;-71
2020/12/31 07:22:31;;;;;;;;;;;19.00;27.70;;;;;;491664;240;1017;-71
2020/12/31 07:24:32;;;;;;;;;;;19.10;27.80;;;;;;491694;240;951;-71
2020/12/31 07:26:33;;;;;;;;;;;19.00;27.70;;;;;;491656;240;1037;-71
2020/12/31 07:28:36;;;;;;;;;;;19.10;27.70;;;;;;491674;240;1186;-71
2020/12/31 07:30:37;;;;;;;;;;;19.00;27.70;;;;;;491555;240;975;-71
2020/12/31 07:32:39;;;;;;;;;;;19.10;27.70;;;;;;491658;240;2199;-71
2020/12/31 07:34:40;;;;;;;;;;;19.00;27.60;;;;;;491699;240;966;-71
2020/12/31 07:36:42;;;;;;;;;;;19.00;27.60;;;;;;491562;240;971;-71
2020/12/31 07:38:43;;;;;;;;;;;19.10;27.70;;;;;;491641;240;939;-71
2020/12/31 07:40:44;;;;;;;;;;;19.00;27.60;;;;;;491616;240;946;-71
2020/12/31 07:42:45;;;;;;;;;;;19.00;27.60;;;;;;491656;238;1274;-71
2020/12/31 07:44:47;;;;;;;;;;;19.00;27.70;;;;;;491718;240;966;-71
2020/12/31 07:46:48;;;;;;;;;;;19.00;27.70;;;;;;491610;240;1152;-71
2020/12/31 07:48:49;;;;;;;;;;;19.00;27.60;;;;;;491643;240;1064;-71
2020/12/31 07:50:51;;;;;;;;;;;19.10;27.60;;;;;;491681;240;1054;-71
2020/12/31 07:52:52;;;;;;;;;;;19.00;27.60;;;;;;491607;240;2132;-71
2020/12/31 07:54:53;;;;;;;;;;;19.10;27.60;;;;;;491717;240;1043;-71
2020/12/31 07:56:54;;;;;;;;;;;19.00;27.60;;;;;;491692;240;1246;-71
2020/12/31 07:58:56;;;;;;;;;;;19.00;27.60;;;;;;491703;240;1155;-71
2020/12/31 08:00:57;;;;;;;;;;;19.00;27.60;;;;;;491633;240;1216;-71
2020/12/31 08:02:58;;;;;;;;;;;19.00;27.60;;;;;;491587;240;965;-71
2020/12/31 08:04:59;;;;;;;;;;;19.00;27.60;;;;;;491650;240;1042;-71
2020/12/31 08:07:01;;;;;;;;;;;19.00;27.60;;;;;;491634;240;1076;-71
2020/12/31 08:09:02;;;;;;;;;;;19.00;27.60;;;;;;491644;240;943;-71
2020/12/31 08:11:03;;;;;;;;;;;19.00;27.60;;;;;;491612;240;1183;-71
2020/12/31 08:13:05;;;;;;;;;;;19.00;27.60;;;;;;491614;240;2195;-71
2020/12/31 08:15:06;;;;;;;;;;;19.00;27.70;;;;;;491635;240;961;-71
2020/12/31 08:17:07;;;;;;;;;;;19.00;27.60;;;;;;491588;240;1021;-71
2020/12/31 08:19:08;;;;;;;;;;;19.00;27.70;;;;;;491609;240;1094;-71
2020/12/31 08:21:10;;;;;;;;;;;19.00;27.60;;;;;;491636;240;1093;-71
2020/12/31 08:23:11;;;;;;;;;;;19.00;27.70;;;;;;491687;240;1030;-71
2020/12/31 08:25:12;;;;;;;;;;;19.00;27.60;;;;;;491689;240;993;-71
2020/12/31 08:27:14;;;;;;;;;;;19.00;27.60;;;;;;491539;240;964;-71
2020/12/31 08:29:15;;;;;;;;;;;19.10;27.70;;;;;;491638;240;1157;-71
2020/12/31 08:31:16;;;;;;;;;;;19.10;27.60;;;;;;491621;240;1193;-71
2020/12/31 08:33:17;;;;;;;;;;;19.10;27.60;;;;;;491579;240;2184;-71
2020/12/31 08:35:19;;;;;;;;;;;19.10;27.60;;;;;;491667;240;975;-71
2020/12/31 08:37:20;;;;;;;;;;;19.10;27.60;;;;;;491664;240;1054;-71
2020/12/31 08:39:21;;;;;;;;;;;19.10;27.70;;;;;;491629;240;947;-71
2020/12/31 08:41:23;;;;;;;;;;;19.10;27.60;;;;;;491599;240;1194;-71
2020/12/31 08:43:24;;;;;;;;;;;19.00;27.60;;;;;;491558;240;1250;-70
2020/12/31 08:45:25;;;;;;;;;;;19.10;27.70;;;;;;491632;240;1073;-71
2020/12/31 08:47:26;;;;;;;;;;;19.00;27.60;;;;;;491620;240;1058;-71
2020/12/31 08:49:28;;;;;;;;;;;19.10;27.70;;;;;;491602;240;1162;-71
2020/12/31 08:51:29;;;;;;;;;;;19.10;27.70;;;;;;491610;240;1072;-71
2020/12/31 08:53:30;;;;;;;;;;;19.10;27.70;;;;;;491604;240;2191;-71
2020/12/31 08:55:31;;;;;;;;;;;19.10;27.70;;;;;;491642;240;952;-71
2020/12/31 08:57:33;;;;;;;;;;;19.10;27.70;;;;;;491625;240;1047;-70
2020/12/31 08:59:34;;;;;;;;;;;19.10;27.60;;;;;;491689;240;1230;-71
2020/12/31 09:01:35;;;;;;;;;;;19.10;27.70;;;;;;491677;240;960;-71
2020/12/31 09:03:37;;;;;;;;;;;19.10;27.70;;;;;;491673;240;1107;-71
2020/12/31 09:05:38;;;;;;;;;;;19.10;27.70;;;;;;491652;240;964;-71
2020/12/31 09:07:39;;;;;;;;;;;19.10;27.80;;;;;;491674;240;954;-71
2020/12/31 09:09:40;;;;;;;;;;;19.10;27.80;;;;;;491607;240;972;-71
2020/12/31 09:11:42;;;;;;;;;;;19.20;27.80;;;;;;491655;240;964;-71
2020/12/31 09:13:43;;;;;;;;;;;19.10;27.80;;;;;;491670;240;2105;-71
2020/12/31 09:15:44;;;;;;;;;;;19.10;27.80;;;;;;491596;240;1403;-71
2020/12/31 09:17:45;;;;;;;;;;;19.10;27.90;;;;;;491633;240;1044;-71
2020/12/31 09:19:47;;;;;;;;;;;19.10;27.90;;;;;;491630;240;1063;-71
2020/12/31 09:21:48;;;;;;;;;;;19.20;27.90;;;;;;491572;240;1292;-72
2020/12/31 09:23:49;;;;;;;;;;;19.10;27.80;;;;;;491631;240;915;-71
2020/12/31 09:25:51;;;;;;;;;;;19.20;27.90;;;;;;491519;240;1431;-71
2020/12/31 09:27:52;;;;;;;;;;;19.10;27.80;;;;;;491593;240;1157;-71
2020/12/31 09:29:53;;;;;;;;;;;19.20;27.90;;;;;;491638;240;1167;-71
2020/12/31 09:31:55;;;;;;;;;;;19.20;27.90;;;;;;491701;240;1229;-71
2020/12/31 09:33:57;;;;;;;;;;;19.10;27.90;;;;;;491588;240;2183;-71
2020/12/31 09:35:57;;;;;;;;;;;19.10;27.90;;;;;;491543;240;1504;-71
2020/12/31 09:37:59;;;;;;;;;;;19.10;28.00;;;;;;491551;240;1093;-70
2020/12/31 09:40:00;;;;;;;;;;;19.20;28.00;;;;;;491617;240;957;-71
2020/12/31 09:42:01;;;;;;;;;;;19.20;28.00;;;;;;491593;240;1182;-70
2020/12/31 09:44:03;;;;;;;;;;;19.20;28.00;;;;;;491634;240;1146;-71
2020/12/31 09:46:04;;;;;;;;;;;19.20;28.00;;;;;;491610;240;977;-71
2020/12/31 09:48:05;;;;;;;;;;;19.20;28.00;;;;;;491588;240;1201;-71
2020/12/31 09:50:08;;;;;;;;;;;19.20;28.00;;;;;;491622;240;977;-71
2020/12/31 09:52:08;;;;;;;;;;;19.20;28.00;;;;;;491574;241;2141;-71
2020/12/31 09:54:09;;;;;;;;;;;19.20;28.10;;;;;;491693;240;939;-71
2020/12/31 09:56:11;;;;;;;;;;;19.20;28.10;;;;;;491599;240;983;-71
2020/12/31 09:58:12;;;;;;;;;;;19.30;28.10;;;;;;491586;240;1128;-71
2020/12/31 10:00:13;;;;;;;;;;;19.30;28.10;;;;;;491646;240;1150;-71
2020/12/31 10:02:14;;;;;;;;;;;19.30;28.10;;;;;;491528;240;1087;-71
2020/12/31 10:04:16;;;;;;;;;;;19.30;28.10;;;;;;491521;240;1094;-71
2020/12/31 10:06:17;;;;;;;;;;;19.30;28.10;;;;;;491612;240;973;-71
2020/12/31 10:08:18;;;;;;;;;;;19.30;28.10;;;;;;491624;240;1001;-71
2020/12/31 10:10:20;;;;;;;;;;;19.20;28.10;;;;;;491599;240;970;-71
2020/12/31 10:12:21;;;;;;;;;;;19.30;28.10;;;;;;491577;240;2137;-71
2020/12/31 10:14:22;;;;;;;;;;;19.30;28.10;;;;;;491636;240;1108;-71
2020/12/31 10:16:23;;;;;;;;;;;19.30;28.10;;;;;;491662;240;1046;-70
2020/12/31 10:18:25;;;;;;;;;;;19.30;28.10;;;;;;491650;240;974;-71
2020/12/31 10:20:26;;;;;;;;;;;19.30;28.10;;;;;;491680;240;948;-71
2020/12/31 10:22:27;;;;;;;;;;;19.20;28.00;;;;;;491622;240;965;-71
2020/12/31 10:24:28;;;;;;;;;;;19.30;28.10;;;;;;491744;240;1033;-71
2020/12/31 10:26:30;;;;;;;;;;;19.30;28.10;;;;;;491616;240;1173;-71
2020/12/31 10:28:31;;;;;;;;;;;19.30;28.10;;;;;;491750;240;943;-71
2020/12/31 10:30:32;;;;;;;;;;;19.30;28.00;;;;;;491645;240;1142;-71
2020/12/31 10:32:33;;;;;;;;;;;19.30;28.00;;;;;;491591;240;2125;-71
2020/12/31 10:34:35;;;;;;;;;;;19.40;28.00;;;;;;491645;240;1205;-71
2020/12/31 10:36:36;;;;;;;;;;;19.40;28.00;;;;;;491640;240;949;-72
2020/12/31 10:38:38;;;;;;;;;;;19.40;28.00;;;;;;491648;240;951;-72
2020/12/31 10:40:40;;;;;;;;;;;19.30;27.90;;;;;;491638;240;1082;-71
2020/12/31 10:42:41;;;;;;;;;;;19.40;27.90;;;;;;491581;240;1063;-71
2020/12/31 10:44:42;;;;;;;;;;;19.40;27.90;;;;;;491654;240;1121;-71
2020/12/31 10:46:44;;;;;;;;;;;19.40;27.80;;;;;;491544;240;970;-71
2020/12/31 10:48:45;;;;;;;;;;;19.40;27.80;;;;;;491596;240;925;-71
2020/12/31 10:50:46;;;;;;;;;;;19.40;27.80;;;;;;491590;240;973;-71
2020/12/31 10:52:47;;;;;;;;;;;19.50;27.70;;;;;;491657;240;2215;-71
2020/12/31 10:54:49;;;;;;;;;;;19.50;27.60;;;;;;491578;240;945;-71
2020/12/31 10:56:50;;;;;;;;;;;19.50;27.60;;;;;;491575;240;965;-71
2020/12/31 10:58:51;;;;;;;;;;;19.50;27.60;;;;;;491583;240;968;-71
2020/12/31 11:00:52;;;;;;;;;;;19.50;27.50;;;;;;491625;240;1130;-70
2020/12/31 11:02:54;;;;;;;;;;;19.50;27.40;;;;;;491608;240;1045;-71
2020/12/31 11:04:55;;;;;;;;;;;19.50;27.40;;;;;;491625;240;946;-71
2020/12/31 11:06:56;;;;;;;;;;;19.50;27.40;;;;;;491603;240;920;-70
2020/12/31 11:08:58;;;;;;;;;;;19.60;27.50;;;;;;491635;240;971;-72
2020/12/31 11:10:59;;;;;;;;;;;19.60;27.50;;;;;;491537;240;1050;-71
2020/12/31 11:13:02;;;;;;;;;;;19.60;27.40;;;;;;491569;240;2194;-71
2020/12/31 11:15:01;;;;;;;;;;;19.60;27.40;;;;;;491581;242;1385;-71
2020/12/31 11:17:03;;;;;;;;;;;19.50;27.40;;;;;;491632;240;982;-71
2020/12/31 11:19:06;;;;;;;;;;;19.60;27.40;;;;;;491621;240;1036;-71
2020/12/31 11:21:08;;;;;;;;;;;19.60;27.40;;;;;;491636;240;1033;-71
2020/12/31 11:23:09;;;;;;;;;;;19.60;27.40;;;;;;491631;240;1048;-70
2020/12/31 11:25:10;;;;;;;;;;;19.60;27.40;;;;;;491656;240;1023;-72
2020/12/31 11:27:11;;;;;;;;;;;19.60;27.30;;;;;;491565;240;997;-71
2020/12/31 11:29:13;;;;;;;;;;;19.60;27.30;;;;;;491639;240;1052;-71
2020/12/31 11:31:14;;;;;;;;;;;19.60;27.30;;;;;;491572;240;1056;-71
2020/12/31 11:33:15;;;;;;;;;;;19.60;27.20;;;;;;491582;240;2137;-71
2020/12/31 11:35:16;;;;;;;;;;;19.60;27.20;;;;;;491648;240;946;-71
2020/12/31 11:37:18;;;;;;;;;;;19.70;27.20;;;;;;491679;240;1011;-71
2020/12/31 11:39:19;;;;;;;;;;;19.60;27.10;;;;;;491660;240;1194;-71
2020/12/31 11:41:20;;;;;;;;;;;19.70;27.10;;;;;;491669;240;1028;-71
2020/12/31 11:43:21;;;;;;;;;;;19.70;27.00;;;;;;491646;240;923;-71
2020/12/31 11:45:23;;;;;;;;;;;19.70;27.00;;;;;;491591;240;1186;-71
2020/12/31 11:47:24;;;;;;;;;;;19.70;27.00;;;;;;491609;240;977;-71
2020/12/31 11:49:25;;;;;;;;;;;19.70;27.00;;;;;;491739;240;952;-71
2020/12/31 11:51:27;;;;;;;;;;;19.70;26.90;;;;;;491624;240;1062;-71
2020/12/31 11:53:28;;;;;;;;;;;19.70;27.00;;;;;;491670;240;2137;-71
2020/12/31 11:55:29;;;;;;;;;;;19.70;27.00;;;;;;491581;240;1012;-71
2020/12/31 11:57:30;;;;;;;;;;;19.70;26.90;;;;;;491594;240;1067;-71
2020/12/31 11:59:32;;;;;;;;;;;19.70;26.90;;;;;;491627;240;1204;-71
2020/12/31 12:01:33;;;;;;;;;;;19.70;26.90;;;;;;491631;240;1173;-71